Time;durP1;ratioP1;P1;durP2;ratioP2;P2;SDS_P1;SDS_P2;PMS_P1;PMS_P2;Temp;Humidity;BMP_temperature;BMP_pressure;BME280_temperature;BME280_humidity;BME280_pressure;Samples;Min_cycle;Max_cycle;Signal;HPM_P1;HPM_P2
2022/06/17 00:01:49;;;;;;;17.73;16.03;;;;;;;15.96;78.77;93133.25;5029307;28;20222;-77
2022/06/17 00:04:14;;;;;;;18.53;16.73;;;;;;;15.88;79.60;93128.66;5028213;28;20191;-77
2022/06/17 00:06:43;;;;;;;17.83;15.87;;;;;;;15.97;79.18;93126.88;5027994;28;20226;-77
2022/06/17 00:09:13;;;;;;;17.93;16.23;;;;;;;15.82;78.71;93103.53;5029020;28;20241;-76
2022/06/17 00:11:38;;;;;;;17.47;15.67;;;;;;;15.93;78.08;93100.38;5027398;28;20226;-77
2022/06/17 00:14:17;;;;;;;18.00;16.17;;;;;;;15.93;78.64;93115.41;5029247;28;20179;-76
2022/06/17 00:16:43;;;;;;;17.30;15.67;;;;;;;15.73;79.77;93089.53;5029002;28;20219;-76
2022/06/17 00:19:09;;;;;;;18.73;16.83;;;;;;;15.89;80.22;93119.72;5029443;28;20213;-76
2022/06/17 00:21:38;;;;;;;19.50;17.50;;;;;;;15.39;81.99;93110.28;5027992;28;20245;-77
2022/06/17 00:24:18;;;;;;;19.60;17.10;;;;;;;15.53;80.68;93111.03;5028554;28;20189;-77
2022/06/17 00:26:44;;;;;;;20.37;16.90;;;;;;;15.73;80.16;93121.91;5027498;28;20234;-77
2022/06/17 00:29:12;;;;;;;18.63;16.73;;;;;;;15.53;80.20;93095.25;5027961;28;20191;-76
2022/06/17 00:31:38;;;;;;;18.63;15.87;;;;;;;15.64;80.53;93133.44;5027330;28;20218;-77
2022/06/17 00:34:03;;;;;;;18.03;16.43;;;;;;;15.66;80.79;93139.16;5028241;28;20259;-76
2022/06/17 00:36:29;;;;;;;17.83;16.00;;;;;;;15.36;80.56;93087.16;5029028;28;20274;-76
2022/06/17 00:38:54;;;;;;;17.53;15.90;;;;;;;15.62;81.08;93125.03;5028885;28;20194;-77
2022/06/17 00:41:28;;;;;;;18.70;16.90;;;;;;;15.60;82.02;93122.72;5028055;28;20230;-76
2022/06/17 00:43:53;;;;;;;19.13;17.33;;;;;;;15.48;82.10;93125.09;5025287;28;20217;-77
2022/06/17 00:46:51;;;;;;;18.70;16.93;;;;;;;15.40;82.99;93107.34;5028830;28;20214;-77
2022/06/17 00:49:26;;;;;;;18.87;16.93;;;;;;;15.56;82.24;93113.88;5014857;28;20258;-77
2022/06/17 00:52:05;;;;;;;18.17;16.07;;;;;;;15.47;83.26;93117.50;5027819;28;20289;-77
2022/06/17 00:54:36;;;;;;;20.20;18.10;;;;;;;15.50;83.10;93116.91;5026926;28;20234;-77
2022/06/17 00:57:26;;;;;;;19.20;17.30;;;;;;;15.28;83.31;93101.00;5027200;28;20247;-77
2022/06/17 01:00:00;;;;;;;18.90;16.97;;;;;;;15.48;83.17;93113.78;5026186;28;20171;-76
2022/06/17 01:02:29;;;;;;;17.67;15.93;;;;;;;15.32;83.38;93104.59;5028500;28;20222;-76
2022/06/17 01:04:55;;;;;;;20.07;18.20;;;;;;;15.45;83.44;93119.63;5028594;28;20187;-77
2022/06/17 01:07:27;;;;;;;18.90;16.97;;;;;;;15.24;83.89;93113.19;5028672;28;20261;-77
2022/06/17 01:09:58;;;;;;;17.27;15.67;;;;;;;15.18;84.35;93119.63;5029240;28;20229;-77
2022/06/17 01:12:32;;;;;;;18.30;16.70;;;;;;;15.06;84.10;93114.88;5031547;28;20272;-77
2022/06/17 01:14:59;;;;;;;18.07;16.43;;;;;;;15.03;83.88;93094.41;5031729;28;20195;-77
2022/06/17 01:17:26;;;;;;;18.47;16.83;;;;;;;15.09;84.09;93100.34;5030326;28;20265;-76
2022/06/17 01:20:01;;;;;;;18.33;16.67;;;;;;;15.11;83.95;93111.34;5030753;28;20187;-77
2022/06/17 01:22:26;;;;;;;17.80;16.10;;;;;;;15.18;83.82;93114.34;5030646;28;20813;-77
2022/06/17 01:25:07;;;;;;;18.03;16.33;;;;;;;15.21;83.60;93111.94;5032004;28;20186;-77
2022/06/17 01:27:36;;;;;;;19.13;17.27;;;;;;;15.16;83.77;93096.25;5031169;28;20238;-77
2022/06/17 01:30:04;;;;;;;18.70;16.80;;;;;;;15.09;84.53;93101.13;5031651;28;20277;-77
2022/06/17 01:32:36;;;;;;;20.17;16.23;;;;;;;15.17;84.18;93097.03;5029692;28;20225;-77
2022/06/17 01:35:02;;;;;;;19.87;16.73;;;;;;;14.90;84.52;93081.25;5030186;28;20249;-77
2022/06/17 01:37:30;;;;;;;18.40;16.67;;;;;;;14.90;84.69;93084.69;5031768;28;20286;-77
2022/06/17 01:39:56;;;;;;;18.67;16.67;;;;;;;14.85;85.19;93074.25;5030606;28;20183;-77
2022/06/17 01:42:22;;;;;;;19.03;17.23;;;;;;;14.96;85.52;93090.63;5031653;28;20246;-77
2022/06/17 01:44:50;;;;;;;19.00;17.13;;;;;;;14.75;86.73;93086.81;5030939;28;20182;-77
2022/06/17 01:47:21;;;;;;;19.03;17.07;;;;;;;14.65;87.50;93089.63;5030940;28;20306;-77
2022/06/17 01:49:51;;;;;;;18.87;16.97;;;;;;;14.64;87.75;93075.72;5029179;28;20190;-77
2022/06/17 01:52:26;;;;;;;19.13;17.33;;;;;;;14.66;88.00;93078.06;5030244;28;20278;-76
2022/06/17 01:54:59;;;;;;;18.93;17.03;;;;;;;14.59;88.68;93083.69;5030010;28;20204;-77
2022/06/17 01:57:35;;;;;;;18.40;16.67;;;;;;;14.58;88.17;93082.16;5030451;28;20217;-77
2022/06/17 02:00:10;;;;;;;19.17;17.27;;;;;;;14.46;88.56;93058.97;5030959;28;20205;-77
2022/06/17 02:02:38;;;;;;;21.17;18.90;;;;;;;14.65;87.81;93071.22;5029421;28;20210;-77
2022/06/17 02:05:07;;;;;;;19.87;17.83;;;;;;;14.71;87.73;93085.84;5031255;28;20218;-77
2022/06/17 02:08:05;;;;;;;18.83;17.00;;;;;;;14.68;88.12;93084.56;5027272;28;20215;-77
2022/06/17 02:10:36;;;;;;;20.17;17.53;;;;;;;14.46;88.71;93077.34;4986011;28;20245;-77
2022/06/17 02:13:04;;;;;;;19.17;17.20;;;;;;;14.63;88.30;93081.28;5030254;28;20215;-77
2022/06/17 02:15:30;;;;;;;20.53;18.37;;;;;;;14.63;88.15;93092.53;5031186;28;20193;-77
2022/06/17 02:17:57;;;;;;;18.80;17.10;;;;;;;14.55;87.52;93081.94;5028944;28;20174;-77
2022/06/17 02:20:24;;;;;;;19.00;16.97;;;;;;;14.51;88.69;93094.13;5030367;28;20241;-78
2022/06/17 02:22:51;;;;;;;18.53;16.83;;;;;;;14.43;88.54;93079.78;5027337;28;20196;-77
2022/06/17 02:25:20;;;;;;;19.93;18.03;;;;;;;14.52;88.22;93072.81;5029333;28;20206;-77
2022/06/17 02:27:50;;;;;;;21.10;18.73;;;;;;;14.68;88.50;93104.84;5029188;28;20179;-77
2022/06/17 02:30:17;;;;;;;18.83;16.83;;;;;;;14.57;88.14;93082.44;5030132;28;20186;-77
2022/06/17 02:32:44;;;;;;;18.47;16.77;;;;;;;14.52;88.27;93080.69;5030252;28;20210;-77
2022/06/17 02:35:47;;;;;;;19.90;17.93;;;;;;;14.65;88.54;93106.19;5030599;28;20186;-78
2022/06/17 02:38:21;;;;;;;19.33;17.47;;;;;;;14.41;88.75;93072.19;5029233;28;20214;-77
2022/06/17 02:40:51;;;;;;;20.20;18.20;;;;;;;14.61;88.74;93099.16;5030257;28;20227;-77
2022/06/17 02:43:23;;;;;;;17.57;15.93;;;;;;;14.62;88.78;93090.22;5030200;28;20258;-77
2022/06/17 02:45:53;;;;;;;17.77;16.17;;;;;;;14.68;88.75;93089.81;5029894;28;20912;-77
2022/06/17 02:48:24;;;;;;;18.57;16.77;;;;;;;14.60;89.88;93090.50;5029227;28;20187;-77
2022/06/17 02:50:54;;;;;;;17.97;16.37;;;;;;;14.60;90.02;93084.47;5029915;28;20257;-77
2022/06/17 02:53:32;;;;;;;18.93;17.03;;;;;;;14.54;90.01;93088.28;5030437;28;20268;-77
2022/06/17 02:55:59;;;;;;;22.03;18.37;;;;;;;14.66;88.85;93092.00;5029923;28;20222;-77
2022/06/17 02:59:05;;;;;;;21.57;17.10;;;;;;;14.47;89.51;93086.78;5030746;28;20190;-77
2022/06/17 03:01:36;;;;;;;19.70;16.93;;;;;;;14.58;89.44;93105.78;5029571;28;20273;-76
2022/06/17 03:04:07;;;;;;;28.73;18.70;;;;;;;14.99;88.25;93108.44;5029884;28;20197;-77
2022/06/17 03:06:36;;;;;;;19.50;17.33;;;;;;;15.46;85.20;93105.38;5029599;28;20223;-77
2022/06/17 03:09:18;;;;;;;22.17;17.67;;;;;;;16.22;81.39;93113.13;5030251;28;20250;-77
2022/06/17 03:11:48;;;;;;;17.90;16.00;;;;;;;16.73;78.78;93108.16;5029804;28;20221;-77
2022/06/17 03:14:13;;;;;;;18.17;16.47;;;;;;;17.53;75.40;93108.63;5028358;28;20190;-77
2022/06/17 03:16:41;;;;;;;18.20;16.37;;;;;;;18.33;70.99;93101.94;5030047;28;20257;-77
2022/06/17 03:19:07;;;;;;;18.53;16.53;;;;;;;19.05;68.24;93098.16;5027470;28;20190;-77
2022/06/17 03:21:33;;;;;;;19.10;17.20;;;;;;;19.74;65.56;93093.28;5029757;28;20223;-77
2022/06/17 03:24:20;;;;;;;18.43;16.07;;;;;;;19.86;65.25;93116.44;5029969;28;20189;-77
2022/06/17 03:26:53;;;;;;;17.23;15.53;;;;;;;19.65;65.77;93113.00;5029600;28;20234;-78
2022/06/17 03:29:21;;;;;;;17.57;15.83;;;;;;;19.31;66.45;93106.03;5029793;28;20192;-78
2022/06/17 03:31:51;;;;;;;18.70;16.70;;;;;;;19.35;67.06;93111.47;5029390;28;20219;-78
2022/06/17 03:34:37;;;;;;;16.20;14.53;;;;;;;19.01;67.93;93107.06;5029690;28;20193;-78
2022/06/17 03:37:02;;;;;;;16.73;15.17;;;;;;;19.96;64.30;93113.41;5029109;28;20232;-77
2022/06/17 03:39:34;;;;;;;17.23;15.63;;;;;;;19.81;64.61;93121.94;5029878;28;20200;-77
2022/06/17 03:42:13;;;;;;;16.93;15.40;;;;;;;20.69;61.68;93092.19;5027422;28;20223;-75
2022/06/17 03:44:44;;;;;;;15.83;14.43;;;;;;;20.47;61.88;93124.38;5028958;28;20194;-77
2022/06/17 03:47:53;;;;;;;16.23;14.43;;;;;;;19.72;65.72;93121.22;5029389;28;20229;-77
2022/06/17 03:50:42;;;;;;;17.53;15.93;;;;;;;19.99;65.19;93121.50;5028339;28;20231;-77
2022/06/17 03:53:23;;;;;;;15.73;14.33;;;;;;;20.18;64.70;93131.66;5028453;28;20268;-76
2022/06/17 03:55:50;;;;;;;15.70;14.40;;;;;;;20.19;64.79;93131.34;5027974;28;20344;-76
2022/06/17 03:58:18;;;;;;;16.30;14.70;;;;;;;20.09;65.71;93126.41;5027835;28;20200;-75
2022/06/17 04:00:59;;;;;;;16.90;15.30;;;;;;;20.84;63.14;93138.53;5025267;28;20241;-73
2022/06/17 04:03:27;;;;;;;16.33;14.93;;;;;;;20.02;63.97;93142.03;5022527;28;20720;-74
2022/06/17 04:06:00;;;;;;;16.97;15.50;;;;;;;19.89;64.88;93140.41;5023890;28;20280;-74
2022/06/17 04:08:26;;;;;;;15.67;14.27;;;;;;;19.96;65.68;93142.56;5024943;28;20723;-74
2022/06/17 04:10:52;;;;;;;16.98;15.27;;;;;;;20.38;62.75;93144.91;5022943;28;20234;-72
2022/06/17 04:13:22;;;;;;;14.90;13.40;;;;;;;20.92;61.01;93152.84;5025136;28;20233;-73
2022/06/17 04:15:59;;;;;;;17.08;15.48;;;;;;;20.57;62.48;93147.88;5023846;28;20233;-75
2022/06/17 04:18:24;;;;;;;16.92;15.27;;;;;;;20.13;64.16;93153.84;5021543;28;20208;-75
2022/06/17 04:20:54;;;;;;;16.53;14.93;;;;;;;19.83;65.52;93144.34;5025219;28;20234;-75
2022/06/17 04:23:25;;;;;;;18.87;16.87;;;;;;;19.30;67.72;93133.59;5026758;28;20193;-74
2022/06/17 04:26:02;;;;;;;18.47;16.57;;;;;;;19.19;68.95;93148.28;5024710;28;20228;-75
2022/06/17 04:28:33;;;;;;;17.20;15.60;;;;;;;19.64;67.58;93146.69;5023958;28;20185;-78
2022/06/17 04:31:01;;;;;;;18.38;16.45;;;;;;;19.79;67.32;93132.84;5024920;28;20225;-79
2022/06/17 04:33:32;;;;;;;17.13;15.50;;;;;;;20.70;65.00;93151.34;5026882;28;20216;-79
2022/06/17 04:36:04;;;;;;;17.92;15.98;;;;;;;23.80;54.07;93155.84;5021740;28;20238;-78
2022/06/17 04:38:45;;;;;;;16.15;14.85;;;;;;;24.22;52.24;93162.91;5026530;28;20229;-77
2022/06/17 04:41:13;;;;;;;16.25;14.75;;;;;;;22.54;56.05;93159.47;5028166;28;20231;-80
2022/06/17 04:43:44;;;;;;;16.13;14.55;;;;;;;22.12;57.80;93148.34;5027987;28;20217;-77
2022/06/17 04:46:28;;;;;;;17.00;15.35;;;;;;;21.52;58.75;93131.69;5029860;28;20224;-77
2022/06/17 04:48:57;;;;;;;16.63;15.05;;;;;;;20.87;61.39;93145.06;5032254;28;20197;-78
2022/06/17 04:51:24;;;;;;;18.70;15.85;;;;;;;20.18;63.99;93140.41;5032115;28;20916;-77
2022/06/17 04:53:51;;;;;;;18.33;16.42;;;;;;;19.87;64.91;93139.97;5029337;28;20198;-77
2022/06/17 04:56:36;;;;;;;19.00;17.17;;;;;;;19.90;65.64;93144.63;5031353;28;20231;-77
2022/06/17 04:59:16;;;;;;;19.47;17.50;;;;;;;19.44;67.14;93142.09;5031966;28;20741;-77
2022/06/17 05:01:42;;;;;;;19.07;17.13;;;;;;;19.20;68.50;93139.22;5031921;28;20240;-77
2022/06/17 05:04:08;;;;;;;18.30;16.30;;;;;;;20.60;64.89;93160.47;5030501;28;20195;-77
2022/06/17 05:06:33;;;;;;;17.57;15.77;;;;;;;21.81;59.78;93137.56;5031467;28;20231;-77
2022/06/17 05:09:10;;;;;;;20.35;17.15;;;;;;;21.61;60.24;93154.38;5030438;28;20229;-77
2022/06/17 05:11:41;;;;;;;17.77;16.08;;;;;;;22.75;56.16;93160.06;5029984;28;20227;-77
2022/06/17 05:14:45;;;;;;;17.40;15.52;;;;;;;25.33;49.04;93172.72;5019779;28;20271;-77
2022/06/17 05:17:11;;;;;;;14.52;13.32;;;;;;;29.21;38.24;93183.44;5027890;28;20296;-77
2022/06/17 05:19:36;;;;;;;15.50;14.02;;;;;;;28.58;39.02;93179.72;5030342;28;20210;-77
2022/06/17 05:22:09;;;;;;;14.88;13.48;;;;;;;28.56;37.51;93179.31;5029947;28;20261;-77
2022/06/17 05:24:34;;;;;;;14.18;12.80;;;;;;;23.99;47.51;93159.34;5030923;28;20197;-77
2022/06/17 05:27:00;;;;;;;13.57;12.32;;;;;;;23.06;50.52;93148.69;5030321;28;20240;-77
2022/06/17 05:29:25;;;;;;;15.65;14.20;;;;;;;22.04;55.23;93153.78;5030701;28;20189;-77
2022/06/17 05:31:52;;;;;;;15.00;13.70;;;;;;;22.17;54.18;93155.31;5029378;28;20226;-76
2022/06/17 05:34:18;;;;;;;16.27;14.82;;;;;;;23.77;50.38;93161.88;5030570;28;20201;-77
2022/06/17 05:36:43;;;;;;;15.02;13.77;;;;;;;27.70;41.31;93176.34;5031252;28;20292;-77
2022/06/17 05:39:08;;;;;;;14.05;12.85;;;;;;;28.53;38.07;93172.75;5031320;28;20191;-76
2022/06/17 05:41:34;;;;;;;18.02;13.63;;;;;;;32.89;31.16;93182.47;5031382;28;20233;-76
2022/06/17 05:44:00;;;;;;;14.20;12.90;;;;;;;33.31;29.13;93171.88;5030544;28;20201;-77
2022/06/17 05:46:25;;;;;;;13.68;12.38;;;;;;;34.44;28.68;93168.28;5029982;28;20233;-77
2022/06/17 05:48:50;;;;;;;12.60;11.60;;;;;;;36.31;25.07;93176.06;5031020;28;20214;-79
2022/06/17 05:51:16;;;;;;;12.70;11.63;;;;;;;35.31;26.44;93156.91;5030284;28;20294;-77
2022/06/17 05:53:41;;;;;;;13.43;12.15;;;;;;;35.96;26.03;93174.19;5030755;28;20199;-77
2022/06/17 05:56:07;;;;;;;12.63;11.27;;;;;;;36.69;23.97;93175.06;5027399;28;20252;-78
2022/06/17 05:58:32;;;;;;;13.43;12.23;;;;;;;35.59;25.71;93151.69;5031210;28;20199;-78
2022/06/17 06:00:58;;;;;;;13.55;12.15;;;;;;;33.54;29.06;93165.81;5028777;28;20234;-77
2022/06/17 06:03:26;;;;;;;13.35;12.25;;;;;;;33.48;29.66;93164.72;5031014;28;20254;-77
2022/06/17 06:05:52;;;;;;;12.52;11.25;;;;;;;35.36;26.88;93151.81;5028623;28;20230;-78
2022/06/17 06:08:18;;;;;;;12.20;11.10;;;;;;;35.17;27.50;93173.50;5030138;28;20190;-78
2022/06/17 06:10:43;;;;;;;12.48;11.38;;;;;;;34.62;28.08;93166.00;5029803;28;20335;-77
2022/06/17 06:13:18;;;;;;;13.05;11.57;;;;;;;31.35;31.88;93150.09;5029868;28;20221;-79
2022/06/17 06:15:46;;;;;;;11.90;10.82;;;;;;;33.41;30.42;93162.09;5028640;28;20222;-78
2022/06/17 06:18:19;;;;;;;11.82;10.85;;;;;;;36.17;25.16;93168.22;5028970;28;20661;-77
2022/06/17 06:20:44;;;;;;;12.18;11.10;;;;;;;34.45;27.70;93172.53;5029557;28;20231;-77
2022/06/17 06:23:10;;;;;;;10.73;9.73;;;;;;;35.68;25.60;93163.94;5029394;28;20193;-78
2022/06/17 06:25:36;;;;;;;13.23;9.82;;;;;;;36.37;25.38;93166.19;5030386;28;20236;-77
2022/06/17 06:28:14;;;;;;;11.80;10.60;;;;;;;35.46;26.31;93161.66;5028974;28;20194;-78
2022/06/17 06:30:40;;;;;;;10.57;9.38;;;;;;;35.14;26.80;93158.84;5029600;28;20234;-78
2022/06/17 06:33:06;;;;;;;11.65;10.48;;;;;;;35.78;25.99;93157.47;5029393;28;20261;-78
2022/06/17 06:35:35;;;;;;;10.30;9.50;;;;;;;33.34;29.28;93159.47;5030007;28;20195;-78
2022/06/17 06:38:01;;;;;;;10.88;9.80;;;;;;;35.48;26.58;93156.59;5029576;28;20225;-78
2022/06/17 06:40:28;;;;;;;10.85;9.65;;;;;;;36.86;24.57;93162.19;5030163;28;20182;-78
2022/06/17 06:42:54;;;;;;;10.10;9.20;;;;;;;36.08;24.99;93154.47;5030452;28;20190;-78
2022/06/17 06:45:32;;;;;;;11.13;10.13;;;;;;;35.74;25.21;93159.50;5029176;28;20242;-77
2022/06/17 06:48:00;;;;;;;10.25;9.45;;;;;;;33.97;27.74;93159.38;5029313;28;20191;-78
2022/06/17 06:50:28;;;;;;;11.85;10.70;;;;;;;33.87;28.04;93149.41;5028474;28;20253;-78
2022/06/17 06:52:54;;;;;;;10.65;9.85;;;;;;;30.94;32.10;93133.72;5029221;28;20214;-78
2022/06/17 06:55:20;;;;;;;11.63;10.63;;;;;;;29.09;34.78;93127.28;5028177;28;20213;-77
2022/06/17 06:57:52;;;;;;;12.30;11.20;;;;;;;26.15;42.10;93120.97;5028802;28;20190;-78
2022/06/17 07:00:36;;;;;;;12.15;11.20;;;;;;;25.55;44.76;93121.97;5028095;28;20213;-77
2022/06/17 07:03:02;;;;;;;14.27;13.02;;;;;;;24.46;47.89;93113.84;5029580;28;20190;-77
2022/06/17 07:05:28;;;;;;;12.88;11.57;;;;;;;24.32;49.61;93124.22;5029493;28;20199;-78
2022/06/17 07:07:54;;;;;;;13.73;12.48;;;;;;;24.95;47.41;93120.16;5028712;28;20194;-77
2022/06/17 07:10:27;;;;;;;13.48;12.48;;;;;;;24.03;49.98;93116.75;5029745;28;20290;-77
2022/06/17 07:12:53;;;;;;;14.70;13.30;;;;;;;23.44;51.82;93117.69;5027459;28;20223;-78
2022/06/17 07:15:20;;;;;;;13.90;12.70;;;;;;;23.22;51.36;93118.25;5024266;28;20204;-78
2022/06/17 07:18:01;;;;;;;13.57;12.32;;;;;;;23.04;51.76;93113.59;5027864;28;20250;-76
2022/06/17 07:20:37;;;;;;;13.93;12.85;;;;;;;23.51;50.16;93123.19;5026814;28;20214;-78
2022/06/17 07:23:07;;;;;;;14.02;12.82;;;;;;;23.57;50.35;93121.81;5027831;28;20182;-79
2022/06/17 07:25:34;;;;;;;13.27;12.13;;;;;;;22.38;54.12;93105.41;5026232;28;20209;-78
2022/06/17 07:28:00;;;;;;;14.32;13.02;;;;;;;21.37;57.55;93103.88;5028477;28;20212;-78
2022/06/17 07:30:27;;;;;;;14.45;13.20;;;;;;;22.67;55.87;93093.63;5027331;28;20212;-78
2022/06/17 07:32:52;;;;;;;12.60;11.50;;;;;;;23.07;55.01;93108.38;5028290;28;20227;-77
2022/06/17 07:35:18;;;;;;;14.07;12.88;;;;;;;21.87;56.68;93088.34;5029101;28;20252;-78
2022/06/17 07:40:28;;;;;;;13.75;12.50;;;;;;;23.16;55.20;93097.56;5028160;28;20277;-80
2022/06/17 07:42:55;;;;;;;13.88;12.43;;;;;;;23.25;54.65;93104.28;5027235;28;20218;-78
2022/06/17 07:45:23;;;;;;;13.23;11.88;;;;;;;22.69;56.04;93100.19;5026441;28;20208;-77
2022/06/17 07:47:49;;;;;;;13.60;11.00;;;;;;;23.11;54.89;93095.94;5026063;28;20198;-76
2022/06/17 07:50:37;;;;;;;14.45;13.00;;;;;;;22.73;56.91;93103.69;5027616;28;20186;-76
2022/06/17 07:53:03;;;;;;;13.35;12.15;;;;;;;22.33;56.44;93092.31;5026071;28;20221;-75
2022/06/17 07:55:28;;;;;;;12.35;11.23;;;;;;;23.15;55.38;93082.69;5026518;28;20211;-74
2022/06/17 07:57:54;;;;;;;14.30;12.98;;;;;;;22.88;54.52;93094.94;5028714;28;20185;-77
2022/06/17 08:00:26;;;;;;;13.65;12.55;;;;;;;22.52;59.11;93097.03;5028225;28;20216;-76
2022/06/17 08:02:52;;;;;;;13.90;12.65;;;;;;;22.01;58.01;93056.06;5027314;28;20192;-75
2022/06/17 08:05:18;;;;;;;14.48;13.27;;;;;;;22.97;53.92;93097.47;5028073;28;20238;-75
2022/06/17 08:07:44;;;;;;;13.63;12.23;;;;;;;23.12;53.58;93094.03;5027546;28;20178;-82
2022/06/17 08:10:15;;;;;;;14.25;12.90;;;;;;;22.98;53.62;93091.00;5027972;28;20254;-74
2022/06/17 08:12:40;;;;;;;15.90;13.70;;;;;;;22.04;56.25;93097.94;5026484;28;20227;-75
2022/06/17 08:15:06;;;;;;;14.68;13.40;;;;;;;22.30;58.46;93094.88;5027847;28;20208;-79
2022/06/17 08:17:32;;;;;;;15.32;12.88;;;;;;;23.08;56.07;93088.59;5026352;28;20256;-74
2022/06/17 08:19:58;;;;;;;16.85;12.48;;;;;;;23.11;54.53;93077.28;5027166;28;20197;-73
2022/06/17 08:22:25;;;;;;;13.45;12.25;;;;;;;22.95;56.70;93087.16;5031989;28;20217;-73
2022/06/17 08:24:52;;;;;;;13.27;11.23;;;;;;;23.41;53.88;93086.38;5032876;28;20196;-72
2022/06/17 08:27:18;;;;;;;14.45;13.10;;;;;;;23.39;53.32;93083.28;5014189;28;20269;-73
2022/06/17 08:29:43;;;;;;;14.15;12.65;;;;;;;23.30;54.84;93074.69;5013177;28;20191;-73
2022/06/17 08:34:53;;;;;;;14.00;12.90;;;;;;;23.28;54.99;93079.63;5032095;28;20219;-73
2022/06/17 08:37:19;;;;;;;14.75;13.45;;;;;;;23.43;55.21;93070.84;5030970;28;20229;-73
2022/06/17 08:39:47;;;;;;;13.38;12.18;;;;;;;23.43;55.29;93070.84;5031764;28;20183;-73
2022/06/17 08:42:54;;;;;;;14.02;12.75;;;;;;;23.25;53.18;93040.31;5031539;28;20260;-73
2022/06/17 08:45:47;;;;;;;14.73;13.23;;;;;;;23.51;53.93;93072.53;5031243;28;20256;-73
2022/06/17 08:48:28;;;;;;;13.65;12.45;;;;;;;23.57;54.27;93079.16;5032356;28;20193;-72
2022/06/17 08:51:23;;;;;;;13.82;12.38;;;;;;;23.23;55.82;93074.53;5031642;28;20880;-73
2022/06/17 08:54:06;;;;;;;13.68;12.30;;;;;;;23.39;56.08;93072.63;5031061;28;20202;-75
2022/06/17 08:56:46;;;;;;;13.45;12.20;;;;;;;23.53;54.48;93074.88;5031669;28;20237;-74
2022/06/17 08:59:33;;;;;;;12.88;11.77;;;;;;;23.37;55.88;93076.78;5031550;28;20220;-75
2022/06/17 09:02:29;;;;;;;13.95;12.85;;;;;;;23.36;54.42;93064.56;5029867;28;20245;-74
2022/06/17 09:05:06;;;;;;;14.32;12.93;;;;;;;23.08;54.93;93030.00;5029993;28;20232;-75
2022/06/17 09:07:50;;;;;;;13.85;12.73;;;;;;;23.46;53.89;93070.13;5031407;28;20232;-73
2022/06/17 09:10:36;;;;;;;13.85;12.75;;;;;;;23.65;53.36;93067.53;5030212;28;20256;-74
2022/06/17 09:13:26;;;;;;;15.63;12.57;;;;;;;23.73;54.37;93061.25;5030291;28;20248;-77
2022/06/17 09:16:09;;;;;;;16.83;12.80;;;;;;;23.51;53.28;93064.56;5030411;28;20249;-79
2022/06/17 09:18:40;;;;;;;13.23;12.13;;;;;;;23.59;53.72;93065.47;5031509;28;20188;-78
2022/06/17 09:21:05;;;;;;;14.15;12.88;;;;;;;23.73;52.87;93073.78;5030625;28;20285;-80
2022/06/17 09:23:37;;;;;;;16.20;14.80;;;;;;;23.89;52.26;93065.75;5057667;22;22004;-80
2022/06/17 09:26:06;;;;;;;13.80;12.60;;;;;;;23.77;52.29;93055.22;5051410;28;20279;-77
2022/06/17 09:28:45;;;;;;;13.43;12.30;;;;;;;23.71;54.27;93071.47;5052062;28;20190;-77
2022/06/17 09:31:19;;;;;;;15.10;13.55;;;;;;;23.06;53.52;93069.53;5050568;28;20233;-80
2022/06/17 09:34:08;;;;;;;13.85;12.55;;;;;;;23.88;52.64;93042.88;5051924;28;20199;-80
2022/06/17 09:36:46;;;;;;;13.77;12.57;;;;;;;24.17;50.00;93074.38;5039867;28;20291;-78
2022/06/17 09:39:35;;;;;;;13.45;12.43;;;;;;;23.85;52.63;93075.53;5031415;28;20194;-77
2022/06/17 09:42:06;;;;;;;13.30;12.18;;;;;;;23.78;52.64;93074.28;5044276;28;20219;-77
2022/06/17 09:44:44;;;;;;;12.43;11.52;;;;;;;23.89;52.53;93065.75;5051416;28;20188;-77
2022/06/17 09:47:19;;;;;;;13.48;12.38;;;;;;;24.43;49.90;93071.81;5039456;28;20240;-77
2022/06/17 09:49:55;;;;;;;11.98;11.18;;;;;;;24.16;50.83;93059.47;5034479;28;20190;-78
2022/06/17 09:52:28;;;;;;;12.73;11.63;;;;;;;24.26;52.05;93065.03;5050276;28;20232;-80
2022/06/17 09:55:17;;;;;;;12.25;11.32;;;;;;;24.44;49.28;93057.34;5051567;28;20216;-78
2022/06/17 09:58:00;;;;;;;12.60;11.63;;;;;;;24.69;48.08;93053.25;5029061;28;20217;-78
2022/06/17 10:00:36;;;;;;;12.05;11.05;;;;;;;24.38;48.04;93058.75;5010779;28;20749;-77
2022/06/17 10:03:21;;;;;;;10.93;10.23;;;;;;;24.59;44.24;93069.84;5013138;28;20188;-78
2022/06/17 10:06:21;;;;;;;11.38;10.43;;;;;;;24.97;43.08;93061.78;5030834;28;20252;-77
2022/06/17 10:09:24;;;;;;;11.60;10.70;;;;;;;24.81;43.83;93051.19;5031521;28;20206;-77
2022/06/17 10:12:07;;;;;;;11.80;10.70;;;;;;;24.41;45.47;93063.38;5043038;28;20301;-77
2022/06/17 10:14:35;;;;;;;12.57;11.57;;;;;;;24.96;45.89;93058.34;5051491;28;20195;-77
2022/06/17 10:20:50;;;;;;;11.20;10.32;;;;;;;24.49;43.84;93054.41;5051017;28;20215;-77
2022/06/17 10:23:33;;;;;;;10.98;10.07;;;;;;;24.72;42.28;93061.34;5010837;28;20276;-78
2022/06/17 10:26:03;;;;;;;11.00;9.95;;;;;;;24.40;42.40;93064.53;5051605;28;20237;-77
2022/06/17 10:28:45;;;;;;;10.07;9.48;;;;;;;24.54;42.32;93040.75;5051274;28;20194;-77
2022/06/17 10:31:30;;;;;;;10.45;9.55;;;;;;;24.75;41.60;93041.94;5050529;28;20217;-77
2022/06/17 10:34:01;;;;;;;10.00;9.40;;;;;;;24.97;41.30;93054.53;5050992;28;20261;-77
2022/06/17 10:36:28;;;;;;;10.13;9.43;;;;;;;24.91;38.63;93057.84;5049865;28;20221;-78
2022/06/17 10:38:53;;;;;;;10.52;9.68;;;;;;;24.96;41.66;93046.88;5051032;28;20188;-77
2022/06/17 10:41:19;;;;;;;10.45;9.60;;;;;;;25.30;40.84;93056.59;5050483;28;20896;-78
2022/06/17 10:43:49;;;;;;;10.48;9.77;;;;;;;25.27;41.76;93051.97;5049874;28;20188;-78
2022/06/17 10:46:21;;;;;;;10.55;9.85;;;;;;;24.82;40.81;93058.09;5047443;28;20231;-77
2022/06/17 10:48:52;;;;;;;10.20;9.50;;;;;;;25.19;39.37;93058.34;5048706;28;20189;-77
2022/06/17 10:51:18;;;;;;;10.32;9.60;;;;;;;24.91;39.05;93055.19;5049763;28;20317;-77
2022/06/17 10:54:11;;;;;;;9.80;9.10;;;;;;;25.08;37.29;93039.47;5050551;28;20190;-77
2022/06/17 10:56:43;;;;;;;9.77;9.18;;;;;;;25.00;35.69;93042.34;5034396;28;20219;-77
2022/06/17 10:59:11;;;;;;;9.30;8.70;;;;;;;25.45;36.60;93047.69;5049282;28;20185;-77
2022/06/17 11:01:45;;;;;;;12.15;11.05;;;;;;;25.72;34.98;93049.25;5049131;28;20854;-78
2022/06/17 11:04:16;;;;;;;9.55;8.88;;;;;;;25.35;36.41;93050.97;5049019;28;20200;-78
2022/06/17 11:06:54;;;;;;;10.32;9.70;;;;;;;25.17;36.45;93057.91;5049492;28;20220;-77
2022/06/17 11:09:38;;;;;;;9.40;8.80;;;;;;;25.32;36.97;93057.03;5049398;28;20280;-78
2022/06/17 11:12:16;;;;;;;9.23;8.63;;;;;;;25.58;36.52;93057.06;5032285;28;20221;-80
2022/06/17 11:14:44;;;;;;;9.65;8.95;;;;;;;25.75;36.62;93051.19;5032882;28;20208;-78
2022/06/17 11:17:39;;;;;;;10.63;9.90;;;;;;;25.47;35.91;93052.69;5048930;28;20217;-78
2022/06/17 11:20:19;;;;;;;9.82;9.13;;;;;;;25.58;36.97;93056.28;5045728;28;20204;-77
2022/06/17 11:23:09;;;;;;;9.85;9.18;;;;;;;25.95;39.88;93055.28;5049680;28;20757;-78
2022/06/17 11:25:37;;;;;;;10.02;9.10;;;;;;;25.77;38.27;93048.16;5049271;28;20225;-77
2022/06/17 11:28:14;;;;;;;9.88;9.25;;;;;;;25.81;38.34;93048.97;5049651;28;20189;-79
2022/06/17 11:31:03;;;;;;;10.27;9.48;;;;;;;26.21;38.18;93039.19;5046011;28;20250;-79
2022/06/17 11:33:40;;;;;;;10.63;9.82;;;;;;;26.24;40.35;93043.06;5028396;28;20230;-79
2022/06/17 11:36:16;;;;;;;11.13;10.32;;;;;;;25.84;39.91;93032.22;5036355;28;20225;-79
2022/06/17 11:38:42;;;;;;;11.50;10.80;;;;;;;26.02;43.85;93028.66;5049335;28;20211;-79
2022/06/17 11:41:09;;;;;;;11.25;10.38;;;;;;;25.63;41.60;93022.00;5049357;28;20252;-79
2022/06/17 11:43:43;;;;;;;11.60;10.80;;;;;;;26.04;41.43;93029.03;5049628;28;20178;-79
2022/06/17 11:46:24;;;;;;;12.13;10.98;;;;;;;25.86;42.73;93011.97;5049304;28;20232;-79
2022/06/17 11:48:55;;;;;;;12.35;11.45;;;;;;;26.18;42.97;93034.56;5049667;28;20178;-79
2022/06/17 11:51:28;;;;;;;12.60;11.52;;;;;;;26.15;43.42;93019.25;5038936;28;20237;-79
2022/06/17 11:53:57;;;;;;;11.93;11.13;;;;;;;25.50;45.24;93019.88;5029759;28;20179;-79